Portada
METAR-TAF:

METAR-TAF

Aeroports :

Akron, Colorado, Estats Units d'Amèrica

latitud: 40-10-28N, longitud: 103-12-52W, altitud: 1431 m

Observació

L'informe es va fer fa 23 minuts, a les 05:53 UTC
Vent 11 kt del Sud
Temperatura 16°C
Humitat 100%
Pressió 1022 hPa
Visibilitat: 16.1 km
Escasses núvols a una alçada de 12000 ft

METAR: KAKO 200553Z AUTO 19011KT 10SM FEW120 16/16 A3019 RMK AO2 RAE06 SLP175 P0000 60007 T01610156 10267 20156 58009

Hora: 00:16 (06:16 UTC)


TAF: manca

Observacions i pronòstics meteorològics de més de 4000 aeroports (METAR i TAF).

Les estacions disponibles són els punts grocs i vermells al mapa.

Posi el ratolí al punt desitjat per veure el nom de l'estació.

Feu clic per veure les observacions i els pronòstics meteorològics.

Per canviar el mapa: feu clic els botons verds amb una creu de color negre per apropar; al botó verd amb un guió per allunyar la imatge; o en les fletxes verdes per a mapes adjacents.


METAR-TAF: